Time;durP1;ratioP1;P1;durP2;ratioP2;P2;SDS_P1;SDS_P2;PMS_P1;PMS_P2;Temp;Humidity;BMP_temperature;BMP_pressure;BME280_temperature;BME280_humidity;BME280_pressure;Samples;Min_cycle;Max_cycle;Signal;HPM_P1;HPM_P2
2022/07/10 00:00:44;;;;;;;9.20;1.90;;;14.60;99.90;;;;;;5052864;28;20905;-66
2022/07/10 00:03:10;;;;;;;12.30;2.08;;;14.60;99.90;;;;;;5059298;28;20043;-70
2022/07/10 00:05:36;;;;;;;8.98;2.03;;;14.50;99.90;;;;;;5058431;28;20056;-68
2022/07/10 00:08:26;;;;;;;10.20;2.03;;;14.50;99.90;;;;;;5056914;28;20040;-67
2022/07/10 00:10:54;;;;;;;12.38;1.80;;;14.40;99.90;;;;;;5039343;28;20048;-67
2022/07/10 00:13:20;;;;;;;10.90;1.80;;;14.50;99.90;;;;;;5058424;28;20094;-67
2022/07/10 00:15:45;;;;;;;8.80;1.90;;;14.50;99.90;;;;;;5059034;28;20040;-67
2022/07/10 00:18:11;;;;;;;10.10;1.85;;;14.50;99.90;;;;;;5058776;28;20056;-68
2022/07/10 00:20:43;;;;;;;8.10;1.75;;;14.40;99.90;;;;;;5057387;28;20512;-67
2022/07/10 00:23:08;;;;;;;18.63;2.70;;;14.40;99.90;;;;;;5058040;28;20048;-66
2022/07/10 00:25:34;;;;;;;7.15;1.60;;;14.40;99.90;;;;;;5056277;28;20453;-66
2022/07/10 00:28:00;;;;;;;10.18;1.77;;;14.50;99.90;;;;;;5059516;28;20040;-65
2022/07/10 00:30:25;;;;;;;9.52;2.00;;;14.40;99.90;;;;;;5060620;28;20136;-67
2022/07/10 00:32:52;;;;;;;8.32;2.00;;;14.30;99.90;;;;;;5058928;28;20044;-67
2022/07/10 00:35:20;;;;;;;8.95;2.03;;;14.40;99.90;;;;;;5056730;28;20036;-65
2022/07/10 00:37:46;;;;;;;10.75;2.38;;;14.40;99.90;;;;;;5050631;28;20701;-67
2022/07/10 00:40:12;;;;;;;15.68;2.10;;;14.40;99.90;;;;;;5055172;28;20055;-67
2022/07/10 00:42:41;;;;;;;9.80;2.15;;;14.40;99.90;;;;;;5051111;28;20056;-68
2022/07/10 00:45:07;;;;;;;12.35;1.90;;;14.50;99.90;;;;;;5052621;28;20105;-67
2022/07/10 00:47:33;;;;;;;13.07;2.05;;;14.50;99.90;;;;;;5051540;28;20051;-66
2022/07/10 00:49:59;;;;;;;8.70;1.88;;;14.50;99.90;;;;;;5050071;28;20048;-68
2022/07/10 00:52:25;;;;;;;12.80;2.80;;;14.40;99.90;;;;;;5053653;28;20498;-66
2022/07/10 00:54:51;;;;;;;9.35;2.00;;;14.50;99.90;;;;;;5057243;28;20036;-67
2022/07/10 00:57:17;;;;;;;8.15;1.80;;;14.40;99.90;;;;;;5060074;28;20051;-66
2022/07/10 00:59:45;;;;;;;16.42;2.30;;;14.40;99.90;;;;;;5068708;28;20048;-66
2022/07/10 01:02:12;;;;;;;8.95;1.95;;;14.40;99.90;;;;;;5061920;28;20037;-67
2022/07/10 01:04:40;;;;;;;10.82;2.03;;;14.40;99.90;;;;;;5060956;28;20106;-67
2022/07/10 01:07:06;;;;;;;;;;;14.40;99.90;;;;;;5057486;28;20076;-66
2022/07/10 01:09:33;;;;;;;12.65;2.45;;;14.30;99.90;;;;;;5061474;28;20292;-66
2022/07/10 01:12:01;;;;;;;12.20;2.90;;;14.30;99.90;;;;;;5068226;28;20048;-66
2022/07/10 01:14:29;;;;;;;8.00;2.15;;;14.40;99.90;;;;;;5050051;28;20329;-66
2022/07/10 01:16:54;;;;;;;11.23;2.05;;;14.40;99.90;;;;;;5073640;28;20417;-66
2022/07/10 01:19:20;;;;;;;9.48;1.92;;;14.40;99.90;;;;;;5066778;28;20123;-67
2022/07/10 01:21:46;;;;;;;10.70;2.47;;;14.30;99.90;;;;;;5049092;28;20052;-66
2022/07/10 01:24:12;;;;;;;7.80;1.98;;;14.30;99.90;;;;;;5065466;28;20036;-67
2022/07/10 01:26:42;;;;;;;11.20;2.13;;;14.30;99.90;;;;;;5067449;28;20045;-67
2022/07/10 01:29:11;;;;;;;8.82;1.80;;;14.30;99.90;;;;;;5067002;28;20043;-67
2022/07/10 01:31:38;;;;;;;7.40;1.60;;;14.30;99.90;;;;;;5066204;28;20048;-68
2022/07/10 01:34:11;;;;;;;12.88;1.70;;;14.30;99.90;;;;;;5048403;28;20048;-67
2022/07/10 01:36:37;;;;;;;12.30;1.42;;;14.30;99.90;;;;;;5058641;28;20178;-67
2022/07/10 01:39:04;;;;;;;11.30;2.00;;;14.20;99.90;;;;;;5056754;28;20041;-66
2022/07/10 01:41:30;;;;;;;5.82;1.58;;;14.30;99.90;;;;;;5046888;28;20059;-66
2022/07/10 01:43:56;;;;;;;15.35;1.92;;;14.30;99.90;;;;;;5057722;28;20041;-67
2022/07/10 01:46:21;;;;;;;15.63;2.72;;;14.30;99.90;;;;;;5057464;28;20143;-67
2022/07/10 01:48:47;;;;;;;16.80;2.28;;;14.20;99.90;;;;;;5053574;28;20036;-67
2022/07/10 01:51:15;;;;;;;12.13;2.25;;;14.20;99.90;;;;;;5057820;28;20061;-66
2022/07/10 01:53:41;;;;;;;12.38;2.55;;;14.20;99.90;;;;;;5055695;28;20052;-66
2022/07/10 01:56:09;;;;;;;10.38;1.70;;;14.20;99.90;;;;;;5053357;28;20166;-68
2022/07/10 01:58:35;;;;;;;11.55;1.80;;;14.20;99.90;;;;;;5057362;28;20044;-67
2022/07/10 02:01:02;;;;;;;10.77;1.80;;;14.20;99.90;;;;;;5054825;28;20454;-67
2022/07/10 02:06:13;;;;;;;9.48;1.98;;;14.20;99.90;;;;;;5062860;28;20101;-66
2022/07/10 02:08:38;;;;;;;10.93;2.63;;;14.20;99.90;;;;;;5046658;28;20444;-67
2022/07/10 02:11:04;;;;;;;7.32;1.55;;;14.00;99.90;;;;;;5064079;28;20059;-67
2022/07/10 02:13:30;;;;;;;13.30;2.05;;;14.10;99.90;;;;;;5062983;28;20055;-67
2022/07/10 02:15:56;;;;;;;14.10;2.85;;;14.10;99.90;;;;;;5063804;28;20090;-67
2022/07/10 02:18:22;;;;;;;12.82;2.22;;;14.10;99.90;;;;;;5065029;28;20097;-67
2022/07/10 02:20:48;;;;;;;13.63;2.03;;;14.10;99.90;;;;;;5066185;28;20071;-66
2022/07/10 02:23:14;;;;;;;6.93;1.65;;;14.10;99.90;;;;;;5076272;28;20048;-66
2022/07/10 02:25:43;;;;;;;9.57;1.70;;;14.00;99.90;;;;;;5060755;28;20455;-67
2022/07/10 02:28:09;;;;;;;13.25;2.33;;;14.00;99.90;;;;;;5062057;28;20040;-66
2022/07/10 02:30:35;;;;;;;20.08;3.40;;;14.00;99.90;;;;;;5058849;28;20041;-66
2022/07/10 02:33:01;;;;;;;10.20;2.40;;;14.00;99.90;;;;;;5061240;28;20766;-66
2022/07/10 02:35:30;;;;;;;11.73;2.25;;;14.00;99.90;;;;;;5059119;28;20098;-67
2022/07/10 02:37:57;;;;;;;12.82;1.80;;;14.00;99.90;;;;;;5054276;28;20041;-67
2022/07/10 02:40:22;;;;;;;13.15;2.15;;;14.00;99.90;;;;;;5055801;28;20670;-67
2022/07/10 02:42:48;;;;;;;9.80;2.13;;;14.00;99.90;;;;;;5055477;28;20044;-66
2022/07/10 02:45:14;;;;;;;10.15;2.05;;;14.10;99.90;;;;;;5039230;28;20045;-66
2022/07/10 02:47:40;;;;;;;10.07;2.35;;;14.00;99.90;;;;;;5056726;28;20037;-66
2022/07/10 02:50:06;;;;;;;10.57;1.60;;;14.00;99.90;;;;;;5054996;28;20067;-66
2022/07/10 02:52:32;;;;;;;10.93;1.83;;;14.10;99.90;;;;;;5052962;28;20179;-66
2022/07/10 02:54:58;;;;;;;17.30;2.05;;;14.10;99.90;;;;;;5057417;28;20122;-67
2022/07/10 02:57:24;;;;;;;13.27;2.38;;;14.00;99.90;;;;;;5065709;28;20106;-66
2022/07/10 02:59:50;;;;;;;14.93;2.20;;;14.10;99.90;;;;;;5066052;28;20399;-67
2022/07/10 03:02:16;;;;;;;13.63;2.58;;;14.10;99.90;;;;;;5062051;28;20447;-65
2022/07/10 03:04:41;;;;;;;12.55;1.92;;;14.10;99.90;;;;;;5064407;28;20190;-67
2022/07/10 03:07:07;;;;;;;13.93;2.63;;;14.10;99.90;;;;;;5063397;28;20040;-66
2022/07/10 03:09:33;;;;;;;14.07;2.53;;;14.10;99.90;;;;;;5065000;28;20045;-66
2022/07/10 03:11:59;;;;;;;10.88;2.17;;;14.10;99.90;;;;;;5059378;28;20518;-67
2022/07/10 03:14:28;;;;;;;9.00;1.90;;;14.00;99.90;;;;;;5061093;28;20390;-66
2022/07/10 03:16:54;;;;;;;11.25;2.05;;;14.10;99.90;;;;;;5060458;28;20036;-66
2022/07/10 03:19:20;;;;;;;10.20;1.63;;;14.00;99.90;;;;;;5064913;28;20081;-66
2022/07/10 03:21:45;;;;;;;10.25;2.08;;;14.10;99.90;;;;;;5064900;28;20117;-65
2022/07/10 03:24:11;;;;;;;9.90;1.75;;;14.10;99.90;;;;;;5063524;28;20079;-67
2022/07/10 03:26:37;;;;;;;17.52;3.33;;;14.10;99.90;;;;;;5063239;28;20067;-68
2022/07/10 03:29:04;;;;;;;11.13;2.00;;;14.10;99.90;;;;;;5047676;28;20486;-67
2022/07/10 03:31:29;;;;;;;11.07;2.33;;;14.10;99.90;;;;;;5066030;28;20043;-66
2022/07/10 03:33:55;;;;;;;18.83;3.25;;;14.10;99.90;;;;;;5062756;28;20414;-67
2022/07/10 03:36:21;;;;;;;15.65;2.10;;;14.20;99.90;;;;;;5033208;28;20431;-67
2022/07/10 03:38:47;;;;;;;15.93;2.75;;;14.20;99.90;;;;;;5052008;28;21074;-68
2022/07/10 03:41:14;;;;;;;12.18;2.15;;;14.30;99.90;;;;;;5053785;28;20194;-66
2022/07/10 03:43:39;;;;;;;10.35;1.88;;;14.30;99.90;;;;;;5057923;28;20097;-66
2022/07/10 03:46:05;;;;;;;11.23;2.10;;;14.30;99.90;;;;;;5053436;28;20436;-66
2022/07/10 03:48:32;;;;;;;9.20;1.88;;;14.40;99.90;;;;;;5054490;28;20044;-67
2022/07/10 03:50:58;;;;;;;12.63;2.30;;;14.40;99.90;;;;;;5053282;28;20048;-67
2022/07/10 03:53:24;;;;;;;9.10;1.73;;;14.50;99.90;;;;;;5052966;28;20072;-68
2022/07/10 03:55:50;;;;;;;8.18;2.05;;;14.50;99.90;;;;;;5053885;28;21835;-66
2022/07/10 03:58:15;;;;;;;11.50;1.98;;;14.50;99.90;;;;;;5054227;28;20482;-67
2022/07/10 04:00:44;;;;;;;9.73;2.15;;;14.60;99.90;;;;;;5061410;28;20037;-66
2022/07/10 04:03:10;;;;;;;11.60;2.33;;;14.60;99.90;;;;;;5068871;28;20036;-65
2022/07/10 04:05:36;;;;;;;15.27;2.58;;;14.70;99.90;;;;;;5063784;28;20478;-67
2022/07/10 04:08:03;;;;;;;13.55;2.80;;;14.80;99.90;;;;;;5062178;28;20633;-68
2022/07/10 04:10:30;;;;;;;12.30;2.45;;;14.80;99.90;;;;;;5060075;28;20502;-66
2022/07/10 04:12:57;;;;;;;9.70;2.08;;;14.80;99.90;;;;;;5062284;28;20063;-68
2022/07/10 04:15:23;;;;;;;11.88;2.22;;;14.80;99.90;;;;;;5064566;28;20475;-68
2022/07/10 04:17:49;;;;;;;17.70;2.65;;;14.80;99.90;;;;;;5062333;28;20048;-67
2022/07/10 04:20:17;;;;;;;15.35;2.65;;;14.80;99.90;;;;;;5047717;28;20550;-68
2022/07/10 04:22:46;;;;;;;12.20;2.50;;;14.80;99.90;;;;;;5062875;28;20052;-68
2022/07/10 04:25:12;;;;;;;14.98;2.47;;;14.80;99.90;;;;;;5062461;28;20064;-66
2022/07/10 04:27:38;;;;;;;9.20;1.90;;;14.90;99.90;;;;;;5063326;28;20067;-69
2022/07/10 04:30:04;;;;;;;11.75;1.88;;;14.90;99.90;;;;;;5061217;28;20479;-66
2022/07/10 04:32:30;;;;;;;10.75;1.90;;;14.90;99.90;;;;;;5064497;28;20048;-67
2022/07/10 04:34:56;;;;;;;12.90;2.50;;;14.90;99.90;;;;;;5057671;28;20040;-67
2022/07/10 04:37:21;;;;;;;14.15;2.53;;;15.00;99.90;;;;;;5051893;28;20074;-66
2022/07/10 04:39:47;;;;;;;7.70;2.25;;;15.00;99.90;;;;;;5055967;28;20460;-66
2022/07/10 04:42:13;;;;;;;16.27;2.67;;;15.00;99.90;;;;;;5053816;28;20049;-66
2022/07/10 04:44:38;;;;;;;6.55;1.77;;;15.00;99.90;;;;;;5071096;28;20048;-67
2022/07/10 04:47:05;;;;;;;11.73;1.88;;;15.10;99.90;;;;;;5053818;28;20565;-67
2022/07/10 04:49:31;;;;;;;14.30;2.40;;;15.10;99.90;;;;;;5050065;28;20048;-67
2022/07/10 04:51:57;;;;;;;6.30;1.48;;;15.10;99.90;;;;;;5052611;28;20041;-67
2022/07/10 04:54:23;;;;;;;7.38;1.85;;;15.10;99.90;;;;;;5061020;28;20124;-65
2022/07/10 04:56:49;;;;;;;7.18;2.35;;;15.10;99.90;;;;;;5062605;28;20135;-66
2022/07/10 04:59:15;;;;;;;9.05;2.33;;;15.20;99.90;;;;;;5061606;28;20044;-68
2022/07/10 05:01:41;;;;;;;6.85;1.63;;;15.20;99.90;;;;;;5063438;28;20037;-67
2022/07/10 05:04:06;;;;;;;11.40;2.05;;;15.20;99.90;;;;;;5063744;28;20043;-68
2022/07/10 05:06:32;;;;;;;12.38;1.75;;;15.30;99.90;;;;;;5062635;28;20132;-67
2022/07/10 05:08:59;;;;;;;12.15;2.80;;;15.20;99.90;;;;;;5059546;28;20044;-67
2022/07/10 05:11:25;;;;;;;15.43;2.58;;;15.30;99.90;;;;;;5061555;28;20123;-67
2022/07/10 05:13:51;;;;;;;8.57;1.90;;;15.30;99.90;;;;;;5063192;28;20041;-68
2022/07/10 05:16:17;;;;;;;10.05;2.53;;;15.30;99.90;;;;;;5063914;28;20411;-67
2022/07/10 05:18:44;;;;;;;10.15;2.10;;;15.40;99.90;;;;;;5060319;28;20049;-68
2022/07/10 05:21:09;;;;;;;10.27;2.22;;;15.30;99.90;;;;;;5062289;28;20118;-67
2022/07/10 05:23:37;;;;;;;11.32;2.13;;;15.40;99.90;;;;;;5061523;28;20041;-66
2022/07/10 05:26:03;;;;;;;16.48;3.00;;;15.40;99.90;;;;;;5059213;28;20552;-67
2022/07/10 05:28:31;;;;;;;12.48;2.33;;;15.40;99.90;;;;;;5063798;28;20036;-67
2022/07/10 05:30:57;;;;;;;8.57;1.95;;;15.40;99.90;;;;;;5063021;28;20409;-67
2022/07/10 05:33:23;;;;;;;9.85;2.28;;;15.50;99.90;;;;;;5062649;28;20044;-67
2022/07/10 05:35:50;;;;;;;12.57;2.17;;;15.50;99.90;;;;;;5053589;28;20044;-66
2022/07/10 05:38:17;;;;;;;11.35;2.33;;;15.50;99.90;;;;;;5066433;28;20563;-68
2022/07/10 05:40:43;;;;;;;11.32;2.45;;;15.60;99.90;;;;;;5060244;28;20059;-66
2022/07/10 05:43:10;;;;;;;10.23;1.80;;;15.60;99.90;;;;;;5050954;28;21190;-66
2022/07/10 05:45:38;;;;;;;12.63;2.17;;;15.60;99.90;;;;;;5054402;28;20049;-66
2022/07/10 05:48:04;;;;;;;10.75;2.42;;;15.70;99.90;;;;;;5055894;28;20053;-68
2022/07/10 05:50:30;;;;;;;8.02;2.05;;;15.60;99.90;;;;;;5052902;28;20082;-67
2022/07/10 05:52:59;;;;;;;7.45;2.10;;;15.70;99.90;;;;;;5054033;28;20084;-67
2022/07/10 05:55:24;;;;;;;11.02;1.90;;;15.70;99.90;;;;;;5068549;28;20135;-65
2022/07/10 05:57:50;;;;;;;10.45;2.35;;;15.70;99.90;;;;;;5048223;28;20086;-66
2022/07/10 06:00:16;;;;;;;9.95;2.38;;;15.70;99.90;;;;;;5056987;28;20044;-66
2022/07/10 06:02:42;;;;;;;9.38;2.22;;;15.70;99.90;;;;;;5057394;28;20510;-68
2022/07/10 06:05:08;;;;;;;6.85;1.63;;;15.70;99.90;;;;;;5048120;28;20057;-69
2022/07/10 06:07:34;;;;;;;7.60;1.70;;;15.70;99.90;;;;;;5065731;28;20415;-67
2022/07/10 06:10:00;;;;;;;7.40;1.85;;;15.70;99.90;;;;;;5061659;28;20040;-67
2022/07/10 06:12:26;;;;;;;10.98;2.17;;;15.60;99.90;;;;;;5064457;28;20474;-68
2022/07/10 06:14:52;;;;;;;9.50;1.60;;;15.60;99.90;;;;;;5067307;28;20044;-67
2022/07/10 06:17:18;;;;;;;11.43;2.03;;;15.70;99.90;;;;;;5060934;28;20095;-67
2022/07/10 06:19:43;;;;;;;11.65;2.55;;;15.60;99.90;;;;;;5062788;28;20487;-66
2022/07/10 06:24:54;;;;;;;7.30;2.03;;;15.70;99.90;;;;;;5062411;28;20113;-67
2022/07/10 06:27:19;;;;;;;10.57;1.90;;;15.70;99.90;;;;;;5063650;28;20561;-68
2022/07/10 06:29:46;;;;;;;12.27;2.30;;;15.70;99.90;;;;;;5062202;28;20082;-65
2022/07/10 06:32:11;;;;;;;12.40;2.40;;;15.70;99.90;;;;;;5079387;28;20051;-67
2022/07/10 06:34:37;;;;;;;7.70;1.95;;;15.70;99.90;;;;;;5061568;28;20395;-67
2022/07/10 06:37:03;;;;;;;10.65;2.13;;;15.70;99.90;;;;;;5055272;28;20535;-66
2022/07/10 06:39:35;;;;;;;17.13;2.58;;;15.70;99.90;;;;;;5063144;28;21388;-68
2022/07/10 06:42:07;;;;;;;11.65;2.08;;;15.70;99.90;;;;;;5051700;28;20049;-67
2022/07/10 06:44:33;;;;;;;9.80;1.95;;;15.70;99.90;;;;;;5055818;28;20041;-67
2022/07/10 06:49:47;;;;;;;6.60;2.15;;;15.60;99.90;;;;;;5057681;28;20079;-67
2022/07/10 06:52:14;;;;;;;9.18;1.73;;;15.50;99.90;;;;;;5053540;28;20044;-67
2022/07/10 06:54:42;;;;;;;12.75;2.40;;;15.30;99.90;;;;;;5056026;28;20032;-69
2022/07/10 06:57:07;;;;;;;6.73;2.00;;;15.50;99.90;;;;;;5053587;28;20505;-68
2022/07/10 06:59:33;;;;;;;11.45;1.95;;;15.50;99.90;;;;;;5064757;28;20036;-68
2022/07/10 07:01:59;;;;;;;11.32;2.00;;;15.60;99.90;;;;;;5063012;28;20772;-68
2022/07/10 07:04:25;;;;;;;12.23;2.28;;;15.60;99.90;;;;;;5060954;28;20047;-67
2022/07/10 07:06:51;;;;;;;7.47;2.05;;;15.60;99.90;;;;;;5062546;28;20045;-67
2022/07/10 07:09:17;;;;;;;9.40;2.40;;;15.60;99.90;;;;;;5041435;28;20041;-67
2022/07/10 07:11:43;;;;;;;10.48;1.95;;;15.60;99.90;;;;;;5065324;28;20036;-66
2022/07/10 07:14:11;;;;;;;7.53;1.77;;;15.70;99.90;;;;;;5064939;28;20036;-67
2022/07/10 07:16:38;;;;;;;7.88;1.80;;;15.80;99.90;;;;;;5059443;28;20064;-68
2022/07/10 07:19:05;;;;;;;10.60;2.00;;;15.80;99.90;;;;;;5063469;28;20079;-67
2022/07/10 07:24:19;;;;;;;9.65;1.55;;;15.90;99.90;;;;;;5063274;28;20048;-67
2022/07/10 07:26:48;;;;;;;7.95;1.70;;;16.00;99.90;;;;;;5063308;28;20051;-67
2022/07/10 07:29:20;;;;;;;11.45;2.40;;;16.00;99.90;;;;;;5067683;28;20037;-68
2022/07/10 07:31:45;;;;;;;7.38;1.58;;;16.00;99.90;;;;;;5060792;28;20410;-67
2022/07/10 07:34:11;;;;;;;7.40;1.67;;;16.00;99.90;;;;;;5059291;28;20036;-67
2022/07/10 07:36:37;;;;;;;6.47;1.60;;;16.00;99.90;;;;;;5056672;28;20037;-69
2022/07/10 07:39:04;;;;;;;5.68;2.10;;;15.80;99.90;;;;;;5051975;28;20093;-67
2022/07/10 07:41:30;;;;;;;7.65;1.83;;;15.70;99.90;;;;;;5055287;28;20040;-68
2022/07/10 07:43:55;;;;;;;11.38;1.83;;;15.70;99.90;;;;;;5053961;28;20044;-67
2022/07/10 07:46:21;;;;;;;5.75;1.27;;;15.80;99.90;;;;;;5052949;28;20048;-66
2022/07/10 07:48:47;;;;;;;4.75;1.27;;;15.80;99.90;;;;;;5053215;28;20044;-68
2022/07/10 07:51:13;;;;;;;4.28;1.15;;;15.80;99.90;;;;;;5054172;28;20386;-66
2022/07/10 07:53:42;;;;;;;6.60;1.40;;;15.90;99.90;;;;;;5056020;28;20110;-67
2022/07/10 07:56:07;;;;;;;5.82;1.50;;;15.90;99.90;;;;;;5056082;28;20040;-67
2022/07/10 07:58:33;;;;;;;5.88;1.40;;;15.90;99.90;;;;;;5061247;28;20097;-65
2022/07/10 08:00:59;;;;;;;8.00;1.70;;;15.90;99.90;;;;;;5062406;28;20109;-67
2022/07/10 08:03:25;;;;;;;7.65;1.73;;;15.90;99.90;;;;;;5044736;28;20108;-66
2022/07/10 08:05:50;;;;;;;6.95;1.42;;;16.00;99.90;;;;;;5062736;28;20051;-67
2022/07/10 08:08:16;;;;;;;7.32;1.50;;;16.00;99.90;;;;;;5059268;28;20044;-68
2022/07/10 08:10:44;;;;;;;5.57;1.40;;;16.00;99.90;;;;;;5062403;28;20048;-66
2022/07/10 08:13:10;;;;;;;6.38;1.65;;;15.90;99.90;;;;;;5060294;28;20036;-69
2022/07/10 08:15:35;;;;;;;5.70;1.50;;;15.90;99.90;;;;;;5043036;28;20045;-69
2022/07/10 08:18:03;;;;;;;7.30;1.60;;;15.90;99.90;;;;;;5060689;28;20376;-67
2022/07/10 08:20:29;;;;;;;;;;;16.60;99.90;;;;;;5063846;28;20036;-67
2022/07/10 08:22:56;;;;;;;6.78;2.10;;;15.90;99.90;;;;;;5062000;28;20294;-67
2022/07/10 08:25:22;;;;;;;6.85;1.60;;;15.90;99.90;;;;;;5046818;28;20562;-67
2022/07/10 08:27:48;;;;;;;7.03;1.60;;;16.00;99.90;;;;;;5059916;28;20052;-69
2022/07/10 08:30:13;;;;;;;6.55;1.65;;;16.10;99.90;;;;;;5060215;28;20048;-67
2022/07/10 08:32:42;;;;;;;7.05;1.40;;;16.20;99.90;;;;;;5063007;28;20054;-68
2022/07/10 08:35:13;;;;;;;5.93;1.40;;;16.40;99.90;;;;;;5061024;28;20449;-67
2022/07/10 08:37:40;;;;;;;8.57;1.45;;;16.40;99.90;;;;;;5052128;28;20462;-67
2022/07/10 08:40:10;;;;;;;3.05;1.10;;;16.40;99.90;;;;;;5049769;28;20063;-67
2022/07/10 08:42:36;;;;;;;6.47;0.95;;;16.40;99.90;;;;;;5052687;28;20139;-66
2022/07/10 08:45:02;;;;;;;2.08;0.80;;;16.50;99.90;;;;;;5053791;28;20074;-67
2022/07/10 08:47:31;;;;;;;2.83;0.90;;;16.60;99.90;;;;;;5070664;28;20059;-67
2022/07/10 08:49:57;;;;;;;3.70;0.98;;;16.70;99.90;;;;;;5050526;28;20195;-68
2022/07/10 08:52:44;;;;;;;3.92;1.35;;;16.80;99.90;;;;;;5054066;28;20036;-67
2022/07/10 08:55:16;;;;;;;7.13;1.17;;;16.90;99.90;;;;;;5053868;28;20439;-65
2022/07/10 08:57:43;;;;;;;4.43;1.00;;;17.00;99.90;;;;;;5052257;28;20036;-67
2022/07/10 09:00:11;;;;;;;5.72;1.13;;;17.10;99.90;;;;;;5057625;28;20055;-68
2022/07/10 09:02:37;;;;;;;7.72;1.05;;;17.20;99.90;;;;;;5063020;28;20033;-65
2022/07/10 09:05:05;;;;;;;6.13;1.30;;;17.10;99.90;;;;;;5059935;28;20056;-67
2022/07/10 09:07:37;;;;;;;6.32;1.27;;;17.10;99.90;;;;;;5060613;28;20052;-66
2022/07/10 09:10:10;;;;;;;3.83;0.93;;;17.20;99.90;;;;;;5059163;28;20048;-67
2022/07/10 09:12:50;;;;;;;4.72;1.08;;;17.30;99.90;;;;;;5059934;28;20036;-66
2022/07/10 09:15:17;;;;;;;2.72;1.13;;;17.30;99.90;;;;;;5058906;28;20041;-67
2022/07/10 09:18:05;;;;;;;2.67;1.02;;;17.40;99.90;;;;;;5061626;28;20040;-66
2022/07/10 09:20:37;;;;;;;4.38;1.10;;;17.40;99.90;;;;;;5061663;28;20048;-67
2022/07/10 09:23:15;;;;;;;5.75;0.90;;;17.50;99.90;;;;;;5059766;28;20410;-67
2022/07/10 09:25:40;;;;;;;3.17;0.90;;;17.50;99.90;;;;;;5061119;28;20037;-68
2022/07/10 09:28:13;;;;;;;4.50;1.20;;;17.50;99.90;;;;;;5060146;28;20410;-67
2022/07/10 09:30:40;;;;;;;4.07;1.50;;;17.50;99.90;;;;;;5060925;28;20049;-67
2022/07/10 09:33:25;;;;;;;2.70;1.20;;;17.50;99.90;;;;;;5064010;28;20052;-66
2022/07/10 09:36:13;;;;;;;4.68;1.00;;;17.40;99.90;;;;;;5054839;28;20327;-68
2022/07/10 09:38:45;;;;;;;7.55;1.50;;;17.30;99.90;;;;;;5060964;28;20490;-68
2022/07/10 09:41:28;;;;;;;10.80;1.52;;;17.20;99.90;;;;;;5053420;28;20604;-67
2022/07/10 09:44:04;;;;;;;5.82;1.40;;;17.20;99.90;;;;;;5055411;28;20052;-67
2022/07/10 09:46:42;;;;;;;5.28;1.70;;;17.10;99.90;;;;;;5039188;28;21790;-67
2022/07/10 09:49:09;;;;;;;6.78;1.52;;;17.10;99.90;;;;;;5055482;28;20083;-66
2022/07/10 09:51:39;;;;;;;4.77;1.37;;;16.90;99.90;;;;;;5056055;28;20045;-66
2022/07/10 09:54:12;;;;;;;5.72;1.45;;;16.90;99.90;;;;;;5071917;28;20049;-67
2022/07/10 09:56:53;;;;;;;6.35;1.73;;;16.80;99.90;;;;;;5059646;28;20111;-67
2022/07/10 09:59:23;;;;;;;4.22;1.55;;;16.70;99.90;;;;;;5063908;28;20114;-67
2022/07/10 10:01:51;;;;;;;4.72;1.92;;;16.60;99.90;;;;;;5062252;28;20055;-66
2022/07/10 10:04:23;;;;;;;6.28;1.25;;;16.50;99.90;;;;;;5061956;28;20090;-67
2022/07/10 10:06:56;;;;;;;5.40;1.50;;;16.50;99.90;;;;;;5039826;28;20065;-68
2022/07/10 10:09:24;;;;;;;5.57;1.55;;;16.40;99.90;;;;;;5040021;28;20037;-67
2022/07/10 10:12:00;;;;;;;4.18;1.58;;;16.50;99.90;;;;;;5040736;28;20033;-67
2022/07/10 10:14:29;;;;;;;7.88;1.70;;;16.50;99.90;;;;;;5044076;28;20045;-67
2022/07/10 10:16:56;;;;;;;11.60;2.17;;;16.50;99.90;;;;;;5044920;28;20483;-67
2022/07/10 10:22:09;;;;;;;6.15;1.50;;;16.30;99.90;;;;;;5045925;28;20299;-67
2022/07/10 10:24:37;;;;;;;5.70;1.67;;;16.20;99.90;;;;;;5044472;28;20044;-67
2022/07/10 10:27:05;;;;;;;7.28;2.00;;;16.10;99.90;;;;;;5045094;28;20037;-67
2022/07/10 10:29:31;;;;;;;8.23;2.08;;;16.20;99.90;;;;;;5045300;28;20049;-68
2022/07/10 10:31:58;;;;;;;7.53;1.98;;;16.20;99.90;;;;;;5045444;28;20049;-68
2022/07/10 10:34:42;;;;;;;6.55;2.50;;;16.30;99.90;;;;;;5043667;28;20057;-68
2022/07/10 10:37:27;;;;;;;7.00;2.15;;;16.60;99.90;;;;;;5034752;28;20491;-68
2022/07/10 10:39:57;;;;;;;9.45;2.47;;;16.60;99.90;;;;;;5039689;28;20037;-68
2022/07/10 10:42:43;;;;;;;10.30;2.50;;;16.70;99.90;;;;;;5043875;28;20556;-68
2022/07/10 10:45:35;;;;;;;7.22;2.42;;;16.80;99.90;;;;;;5037791;28;20045;-67
2022/07/10 10:48:04;;;;;;;8.10;2.25;;;16.90;99.90;;;;;;5017518;28;20072;-67
2022/07/10 10:50:40;;;;;;;8.93;2.22;;;16.90;99.90;;;;;;5033600;28;20048;-68
2022/07/10 10:53:22;;;;;;;10.32;2.20;;;16.90;99.90;;;;;;5036025;28;20037;-68
2022/07/10 10:56:03;;;;;;;9.07;2.17;;;16.80;99.90;;;;;;5035915;28;20111;-68
2022/07/10 10:58:38;;;;;;;8.65;2.38;;;16.40;99.90;;;;;;5043190;28;20052;-68
2022/07/10 11:01:25;;;;;;;7.53;2.22;;;16.20;99.90;;;;;;5046098;28;20522;-67
2022/07/10 11:04:12;;;;;;;11.30;2.90;;;16.10;99.90;;;;;;5042011;28;20058;-67
2022/07/10 11:06:39;;;;;;;11.40;2.92;;;16.00;99.90;;;;;;5062872;28;20425;-66
2022/07/10 11:09:24;;;;;;;8.50;2.67;;;16.00;99.90;;;;;;5054125;28;20093;-66
2022/07/10 11:12:08;;;;;;;11.07;2.78;;;16.10;99.90;;;;;;5049212;28;20284;-67
2022/07/10 11:14:46;;;;;;;7.70;2.42;;;16.30;99.90;;;;;;5070012;28;20360;-67
2022/07/10 11:17:12;;;;;;;8.65;2.60;;;16.50;99.90;;;;;;5067613;28;20040;-68
2022/07/10 11:19:39;;;;;;;8.82;2.47;;;16.70;99.90;;;;;;5060009;28;20409;-67
2022/07/10 11:22:32;;;;;;;6.55;2.45;;;16.90;99.90;;;;;;5062129;28;20075;-67
2022/07/10 11:25:22;;;;;;;8.23;2.47;;;17.10;99.90;;;;;;5059947;28;20044;-68
2022/07/10 11:28:08;;;;;;;10.48;2.97;;;17.20;99.90;;;;;;5061374;28;20049;-67
2022/07/10 11:30:45;;;;;;;13.88;2.67;;;17.30;99.90;;;;;;5061534;28;20048;-65
2022/07/10 11:33:11;;;;;;;7.32;2.13;;;17.30;99.90;;;;;;5062712;28;20040;-68
2022/07/10 11:35:46;;;;;;;11.65;2.30;;;17.20;99.90;;;;;;5053974;28;20052;-67
2022/07/10 11:38:11;;;;;;;9.70;2.33;;;17.10;99.90;;;;;;5051634;28;20111;-68
2022/07/10 11:40:39;;;;;;;10.13;2.40;;;16.80;99.90;;;;;;5053275;28;20054;-69
2022/07/10 11:43:08;;;;;;;9.32;2.15;;;16.90;99.90;;;;;;5052964;28;20041;-68
2022/07/10 11:45:37;;;;;;;10.93;2.42;;;16.90;99.90;;;;;;5053720;28;20056;-68
2022/07/10 11:48:04;;;;;;;8.88;2.28;;;16.90;99.90;;;;;;5054396;28;20176;-67
2022/07/10 11:50:37;;;;;;;8.32;2.92;;;16.90;99.90;;;;;;5050378;28;20045;-68
2022/07/10 11:53:04;;;;;;;11.25;2.45;;;16.90;99.90;;;;;;5052938;28;20793;-67
2022/07/10 11:55:31;;;;;;;4.80;2.00;;;16.80;99.90;;;;;;5051437;28;20060;-67
2022/07/10 11:57:57;;;;;;;8.57;2.20;;;16.80;99.90;;;;;;5058117;28;20079;-68
2022/07/10 12:00:29;;;;;;;7.05;2.10;;;16.80;99.90;;;;;;5063929;28;20678;-67
2022/07/10 12:02:57;;;;;;;5.65;2.05;;;16.80;99.90;;;;;;5063558;28;20040;-67
2022/07/10 12:05:38;;;;;;;12.52;2.10;;;16.80;99.90;;;;;;5063928;28;20071;-67
2022/07/10 12:08:04;;;;;;;9.82;2.35;;;16.80;99.90;;;;;;5061080;28;20106;-68
2022/07/10 12:10:34;;;;;;;7.70;2.10;;;16.80;99.90;;;;;;5062065;28;20498;-67
2022/07/10 12:13:07;;;;;;;8.38;2.20;;;16.80;99.90;;;;;;5059494;28;20044;-68
2022/07/10 12:15:37;;;;;;;11.05;2.30;;;16.80;99.90;;;;;;5059366;28;20076;-69
2022/07/10 12:18:06;;;;;;;10.32;2.17;;;16.80;99.90;;;;;;5063635;28;20694;-67
2022/07/10 12:20:33;;;;;;;6.65;1.60;;;16.80;99.90;;;;;;5044335;28;20037;-67
2022/07/10 12:22:59;;;;;;;8.88;2.47;;;16.90;99.90;;;;;;5063971;28;20540;-66
2022/07/10 12:25:25;;;;;;;4.00;1.75;;;17.10;99.90;;;;;;5062404;28;20159;-68
2022/07/10 12:27:58;;;;;;;8.15;2.10;;;17.10;99.90;;;;;;5064565;28;20119;-67
2022/07/10 12:30:42;;;;;;;10.57;1.77;;;17.10;99.90;;;;;;5047169;28;20044;-66
2022/07/10 12:33:16;;;;;;;5.05;1.50;;;17.20;99.90;;;;;;5054357;28;20539;-68
2022/07/10 12:36:00;;;;;;;6.97;1.40;;;17.20;99.90;;;;;;5054623;28;20569;-67
2022/07/10 12:38:29;;;;;;;7.65;2.10;;;17.20;99.90;;;;;;5056350;28;20375;-67
2022/07/10 12:41:15;;;;;;;6.03;1.80;;;17.20;99.90;;;;;;5052399;28;20044;-69
2022/07/10 12:43:42;;;;;;;6.93;1.70;;;17.20;99.90;;;;;;5052364;28;20466;-67
2022/07/10 12:46:11;;;;;;;5.03;1.80;;;17.10;99.90;;;;;;5054012;28;20040;-69
2022/07/10 12:48:38;;;;;;;5.10;1.60;;;17.00;99.90;;;;;;5052160;28;20303;-67
2022/07/10 12:51:24;;;;;;;9.60;1.30;;;16.90;99.90;;;;;;5053399;28;20490;-68
2022/07/10 12:53:50;;;;;;;7.88;1.95;;;16.70;99.90;;;;;;5051943;28;20445;-69
2022/07/10 12:56:27;;;;;;;6.55;1.88;;;16.80;99.90;;;;;;5052292;28;20402;-67
2022/07/10 12:58:55;;;;;;;6.50;1.85;;;16.80;99.90;;;;;;5060540;28;20145;-67
2022/07/10 13:01:21;;;;;;;5.38;2.05;;;16.70;99.90;;;;;;5059595;28;20036;-68
2022/07/10 13:03:57;;;;;;;9.57;2.20;;;16.70;99.90;;;;;;5040916;28;20411;-68